Time;durP1;ratioP1;P1;durP2;ratioP2;P2;SDS_P1;SDS_P2;PMS_P1;PMS_P2;Temp;Humidity;BMP_temperature;BMP_pressure;BME280_temperature;BME280_humidity;BME280_pressure;Samples;Min_cycle;Max_cycle;Signal;HPM_P1;HPM_P2
2023/12/27 00:00:03;;;;;;;3.22;1.58;;;12.40;99.90;;;;;;5014274;28;20101;-44
2023/12/27 00:02:30;;;;;;;3.28;1.33;;;12.40;99.90;;;;;;5014826;28;20463;-44
2023/12/27 00:04:55;;;;;;;2.15;1.30;;;12.40;99.90;;;;;;5013502;28;20041;-43
2023/12/27 00:07:21;;;;;;;2.95;1.40;;;12.40;99.90;;;;;;5015005;28;20030;-44
2023/12/27 00:09:46;;;;;;;2.28;1.40;;;12.40;99.90;;;;;;5014375;28;20104;-44
2023/12/27 00:12:13;;;;;;;2.97;1.40;;;12.40;99.90;;;;;;5013673;28;20116;-44
2023/12/27 00:14:39;;;;;;;2.10;1.17;;;12.40;99.90;;;;;;5013852;28;20018;-45
2023/12/27 00:17:05;;;;;;;3.45;1.40;;;12.40;99.90;;;;;;5014179;28;20118;-44
2023/12/27 00:19:30;;;;;;;1.95;1.20;;;12.40;99.90;;;;;;5013972;28;20030;-44
2023/12/27 00:21:56;;;;;;;2.08;1.20;;;12.40;99.90;;;;;;5013428;28;20088;-44
2023/12/27 00:24:21;;;;;;;2.08;1.17;;;12.40;99.90;;;;;;5014879;28;20392;-44
2023/12/27 00:26:47;;;;;;;2.90;1.30;;;12.40;99.90;;;;;;5014509;28;20543;-44
2023/12/27 00:29:13;;;;;;;2.53;1.30;;;12.40;99.90;;;;;;5013522;28;20033;-45
2023/12/27 00:31:38;;;;;;;1.75;1.10;;;12.40;99.90;;;;;;5013835;28;20022;-44
2023/12/27 00:34:04;;;;;;;3.55;1.50;;;12.30;99.90;;;;;;5013622;28;20063;-44
2023/12/27 00:36:29;;;;;;;2.72;1.13;;;12.40;99.90;;;;;;5013487;28;20057;-44
2023/12/27 00:38:56;;;;;;;2.42;1.38;;;12.40;99.90;;;;;;5013492;28;20076;-44
2023/12/27 00:41:22;;;;;;;1.65;1.02;;;12.40;99.90;;;;;;5013181;28;20041;-44
2023/12/27 00:43:48;;;;;;;3.03;1.25;;;12.30;99.90;;;;;;5013115;28;20057;-44
2023/12/27 00:46:13;;;;;;;2.53;1.08;;;12.30;99.90;;;;;;5013102;28;20037;-44
2023/12/27 00:48:39;;;;;;;1.52;0.93;;;12.30;99.90;;;;;;5012821;28;20083;-44
2023/12/27 00:51:05;;;;;;;2.53;1.05;;;12.30;99.90;;;;;;5012854;28;20168;-44
2023/12/27 00:53:30;;;;;;;3.15;1.30;;;12.30;99.90;;;;;;5012828;28;20022;-44
2023/12/27 00:55:56;;;;;;;2.53;1.20;;;12.30;99.90;;;;;;5012723;28;20069;-44
2023/12/27 00:58:22;;;;;;;2.28;0.93;;;12.30;99.90;;;;;;5012641;28;20026;-44
2023/12/27 01:00:47;;;;;;;1.73;0.98;;;12.30;99.90;;;;;;5012664;28;20061;-44
2023/12/27 01:03:13;;;;;;;1.48;0.93;;;12.30;99.90;;;;;;5013117;28;20069;-44
2023/12/27 01:05:38;;;;;;;1.90;1.10;;;12.30;99.90;;;;;;5011364;28;20025;-44
2023/12/27 01:08:04;;;;;;;2.33;1.20;;;12.30;99.90;;;;;;5011608;28;20030;-44
2023/12/27 01:10:30;;;;;;;2.50;1.30;;;12.30;99.90;;;;;;5012717;28;20432;-43
2023/12/27 01:12:56;;;;;;;1.67;1.20;;;12.30;99.90;;;;;;5012687;28;20052;-44
2023/12/27 01:15:22;;;;;;;1.13;0.80;;;12.30;99.90;;;;;;5013368;28;20037;-44
2023/12/27 01:17:48;;;;;;;1.95;1.00;;;12.30;99.90;;;;;;5013366;28;20028;-44
2023/12/27 01:20:14;;;;;;;2.13;1.17;;;12.30;99.90;;;;;;5012420;28;20557;-44
2023/12/27 01:22:39;;;;;;;1.65;0.90;;;12.30;99.90;;;;;;5012139;28;20495;-44
2023/12/27 01:25:05;;;;;;;2.22;1.00;;;12.30;99.90;;;;;;5013005;28;20034;-45
2023/12/27 01:27:31;;;;;;;3.58;1.00;;;12.30;99.90;;;;;;5012515;28;20045;-44
2023/12/27 01:29:56;;;;;;;1.73;1.02;;;12.30;99.90;;;;;;5012156;28;20033;-44
2023/12/27 01:32:22;;;;;;;2.13;1.10;;;12.30;99.90;;;;;;5012238;28;20030;-45
2023/12/27 01:34:48;;;;;;;2.15;0.93;;;12.30;99.90;;;;;;5013317;28;20033;-44
2023/12/27 01:37:14;;;;;;;2.70;1.00;;;12.30;99.90;;;;;;5012432;28;20050;-44
2023/12/27 01:39:39;;;;;;;1.75;0.90;;;12.30;99.90;;;;;;5011430;28;20119;-44
2023/12/27 01:42:05;;;;;;;2.83;1.23;;;12.30;99.90;;;;;;5012527;28;20080;-44
2023/12/27 01:44:31;;;;;;;1.98;1.00;;;12.30;99.90;;;;;;5012292;28;20026;-44
2023/12/27 01:46:57;;;;;;;1.67;1.05;;;12.30;99.90;;;;;;5012036;28;20463;-43
2023/12/27 01:49:23;;;;;;;2.03;1.20;;;12.30;99.90;;;;;;5012874;28;20025;-44
2023/12/27 01:51:49;;;;;;;1.88;1.08;;;12.30;99.90;;;;;;5012486;28;20030;-44
2023/12/27 01:54:15;;;;;;;2.47;1.20;;;12.30;99.90;;;;;;5011764;28;20105;-44
2023/12/27 01:56:44;;;;;;;2.10;1.00;;;12.30;99.90;;;;;;5011763;28;20028;-44
2023/12/27 01:59:11;;;;;;;2.00;1.00;;;12.30;99.90;;;;;;5012762;28;20029;-44
2023/12/27 02:01:37;;;;;;;2.58;1.15;;;12.30;99.90;;;;;;5012854;28;20029;-44
2023/12/27 02:04:03;;;;;;;1.65;0.80;;;12.30;99.90;;;;;;5011720;28;20451;-44
2023/12/27 02:06:29;;;;;;;2.40;1.30;;;12.30;99.90;;;;;;5011640;28;20025;-44
2023/12/27 02:08:55;;;;;;;2.25;1.20;;;12.30;99.90;;;;;;5011604;28;20033;-44
2023/12/27 02:11:21;;;;;;;3.15;1.08;;;12.30;99.90;;;;;;5011560;28;20034;-45
2023/12/27 02:13:46;;;;;;;2.05;1.00;;;12.30;99.90;;;;;;5012297;28;20037;-43
2023/12/27 02:16:13;;;;;;;3.08;1.10;;;12.30;99.90;;;;;;5011540;28;20036;-43
2023/12/27 02:18:39;;;;;;;2.00;1.00;;;12.30;99.90;;;;;;5011497;28;20030;-44
2023/12/27 02:21:05;;;;;;;1.30;0.80;;;12.30;99.90;;;;;;5012032;28;20030;-44
2023/12/27 02:23:33;;;;;;;1.77;1.00;;;12.30;99.90;;;;;;5012075;28;20737;-44
2023/12/27 02:26:00;;;;;;;1.67;1.00;;;12.30;99.90;;;;;;5011964;28;20606;-44
2023/12/27 02:28:25;;;;;;;1.77;1.10;;;12.30;99.90;;;;;;5011716;28;20388;-44
2023/12/27 02:30:54;;;;;;;2.17;1.25;;;12.30;99.90;;;;;;5011426;28;20472;-44
2023/12/27 02:33:20;;;;;;;2.15;0.95;;;12.30;99.90;;;;;;5012500;28;20022;-44
2023/12/27 02:35:46;;;;;;;1.85;0.93;;;12.30;99.90;;;;;;5011198;28;20488;-44
2023/12/27 02:38:12;;;;;;;2.45;1.15;;;12.30;99.90;;;;;;5011462;28;20468;-43
2023/12/27 02:40:37;;;;;;;1.70;0.90;;;12.30;99.90;;;;;;5011768;28;20026;-44
2023/12/27 02:43:03;;;;;;;2.15;1.00;;;12.30;99.90;;;;;;5011239;28;20369;-44
2023/12/27 02:45:29;;;;;;;2.22;1.02;;;12.30;99.90;;;;;;5011490;28;20053;-44
2023/12/27 02:47:54;;;;;;;2.35;1.00;;;12.30;99.90;;;;;;5011576;28;20022;-44
2023/12/27 02:50:20;;;;;;;2.30;1.10;;;12.30;99.90;;;;;;5011159;28;20038;-45
2023/12/27 02:52:45;;;;;;;2.03;0.90;;;12.30;99.90;;;;;;5011164;28;20357;-44
2023/12/27 02:55:11;;;;;;;2.13;0.88;;;12.30;99.90;;;;;;5011253;28;20022;-44
2023/12/27 02:57:37;;;;;;;2.33;1.00;;;12.30;99.90;;;;;;5011090;28;20084;-44
2023/12/27 03:00:03;;;;;;;2.17;0.95;;;12.30;99.90;;;;;;5011849;28;20041;-44
2023/12/27 03:02:29;;;;;;;1.58;1.10;;;12.30;99.90;;;;;;5012105;28;20026;-43
2023/12/27 03:04:55;;;;;;;1.52;0.95;;;12.30;99.90;;;;;;5012022;28;20088;-44
2023/12/27 03:07:20;;;;;;;1.63;1.00;;;12.30;99.90;;;;;;5011524;28;20507;-44
2023/12/27 03:09:47;;;;;;;1.30;0.90;;;12.30;99.90;;;;;;5011636;28;20104;-44
2023/12/27 03:12:12;;;;;;;1.67;0.88;;;12.30;99.90;;;;;;5011091;28;20018;-44
2023/12/27 03:14:38;;;;;;;1.45;1.00;;;12.40;99.90;;;;;;5009736;28;20025;-44
2023/12/27 03:17:04;;;;;;;1.88;0.93;;;12.40;99.90;;;;;;5011678;28;20030;-44
2023/12/27 03:19:29;;;;;;;1.35;0.85;;;12.40;99.90;;;;;;5011248;28;20399;-44
2023/12/27 03:21:55;;;;;;;1.73;0.90;;;12.40;99.90;;;;;;5011690;28;20030;-44
2023/12/27 03:24:20;;;;;;;1.50;0.93;;;12.50;99.90;;;;;;5011235;28;20040;-45
2023/12/27 03:26:46;;;;;;;1.30;0.77;;;12.50;99.90;;;;;;5011947;28;20030;-44
2023/12/27 03:29:12;;;;;;;2.97;0.88;;;12.50;99.90;;;;;;5010849;28;20522;-44
2023/12/27 03:31:37;;;;;;;2.05;1.17;;;12.60;99.90;;;;;;5012197;28;20092;-44
2023/12/27 03:34:03;;;;;;;2.55;1.10;;;12.60;99.90;;;;;;5014905;28;20106;-44
2023/12/27 03:36:28;;;;;;;2.40;1.20;;;12.60;99.90;;;;;;5014497;28;20028;-44
2023/12/27 03:38:54;;;;;;;2.55;1.00;;;12.60;99.90;;;;;;5014966;28;20030;-44
2023/12/27 03:41:20;;;;;;;1.80;0.90;;;12.60;99.90;;;;;;5014285;28;20076;-44
2023/12/27 03:43:45;;;;;;;1.60;1.10;;;12.60;99.90;;;;;;5014183;28;20034;-44
2023/12/27 03:46:11;;;;;;;1.63;0.95;;;12.60;99.90;;;;;;5014495;28;20033;-45
2023/12/27 03:48:36;;;;;;;2.15;1.10;;;12.60;99.90;;;;;;5013869;28;20076;-44
2023/12/27 03:51:03;;;;;;;3.22;1.20;;;12.70;99.90;;;;;;5014116;28;20084;-44
2023/12/27 03:53:29;;;;;;;1.55;1.10;;;12.70;99.90;;;;;;5014206;28;20538;-44
2023/12/27 03:55:54;;;;;;;1.73;0.98;;;12.70;99.90;;;;;;5014241;28;20025;-44
2023/12/27 03:58:20;;;;;;;0.98;0.82;;;12.60;99.90;;;;;;5014146;28;20083;-45
2023/12/27 04:00:45;;;;;;;1.48;0.90;;;12.70;99.90;;;;;;5014299;28;20040;-44
2023/12/27 04:03:11;;;;;;;1.63;0.80;;;12.60;99.90;;;;;;5014623;28;20060;-43
2023/12/27 04:05:36;;;;;;;1.30;0.88;;;12.70;99.90;;;;;;5013880;28;20288;-44
2023/12/27 04:08:04;;;;;;;1.65;0.82;;;12.70;99.90;;;;;;5013662;28;20108;-44
2023/12/27 04:10:33;;;;;;;1.63;1.00;;;12.70;99.90;;;;;;5014935;28;20030;-44
2023/12/27 04:12:59;;;;;;;1.30;1.00;;;12.70;99.90;;;;;;5013675;28;20022;-44
2023/12/27 04:15:24;;;;;;;2.00;0.90;;;12.60;99.90;;;;;;5014301;28;20033;-44
2023/12/27 04:17:50;;;;;;;1.73;0.80;;;12.60;99.90;;;;;;5014538;28;20100;-44
2023/12/27 04:20:16;;;;;;;1.75;0.95;;;12.70;99.90;;;;;;5014431;28;20022;-44
2023/12/27 04:22:41;;;;;;;1.83;0.80;;;12.70;99.90;;;;;;5013269;28;20044;-44
2023/12/27 04:25:08;;;;;;;1.35;0.90;;;12.70;99.90;;;;;;5013755;28;20053;-44
2023/12/27 04:27:34;;;;;;;1.50;1.00;;;12.70;99.90;;;;;;5013235;28;20037;-44
2023/12/27 04:29:59;;;;;;;2.30;1.08;;;12.70;99.90;;;;;;5013395;28;20539;-43
2023/12/27 04:32:25;;;;;;;1.92;0.85;;;12.70;99.90;;;;;;5013179;28;20422;-44
2023/12/27 04:34:50;;;;;;;2.50;0.93;;;12.60;99.90;;;;;;5013926;28;20030;-43
2023/12/27 04:37:16;;;;;;;2.28;1.10;;;12.60;99.90;;;;;;5013504;28;20064;-44
2023/12/27 04:39:42;;;;;;;2.90;0.88;;;12.60;99.90;;;;;;5014030;28;20018;-44
2023/12/27 04:42:08;;;;;;;2.97;0.90;;;12.60;99.90;;;;;;5012959;28;20507;-43
2023/12/27 04:44:33;;;;;;;2.35;1.00;;;12.60;99.90;;;;;;5012683;28;20033;-44
2023/12/27 04:46:59;;;;;;;1.48;0.85;;;12.60;99.90;;;;;;5013688;28;20555;-44
2023/12/27 04:49:25;;;;;;;1.92;1.00;;;12.60;99.90;;;;;;5012495;28;20041;-44
2023/12/27 04:51:51;;;;;;;0.90;0.63;;;12.60;99.90;;;;;;5011542;28;20034;-44
2023/12/27 04:54:17;;;;;;;1.85;1.02;;;12.60;99.90;;;;;;5013677;28;20025;-44
2023/12/27 04:56:42;;;;;;;1.25;0.88;;;12.60;99.90;;;;;;5012856;28;20014;-44
2023/12/27 04:59:08;;;;;;;2.25;1.00;;;12.60;99.90;;;;;;5012772;28;20022;-43
2023/12/27 05:01:34;;;;;;;1.50;1.00;;;12.60;99.90;;;;;;5012829;28;20121;-44
2023/12/27 05:03:59;;;;;;;1.73;1.13;;;12.60;99.90;;;;;;5012686;28;20026;-44
2023/12/27 05:06:25;;;;;;;1.75;1.10;;;12.60;99.90;;;;;;5012611;28;20029;-44
2023/12/27 05:08:51;;;;;;;2.63;1.15;;;12.60;99.90;;;;;;5012527;28;20403;-44
2023/12/27 05:11:18;;;;;;;2.05;1.30;;;12.60;99.90;;;;;;5012575;28;20492;-43
2023/12/27 05:13:44;;;;;;;3.80;1.33;;;12.60;99.90;;;;;;5013061;28;20017;-44
2023/12/27 05:16:14;;;;;;;2.60;1.23;;;12.50;99.90;;;;;;5012383;28;20052;-43
2023/12/27 05:18:42;;;;;;;2.45;1.40;;;12.50;99.90;;;;;;5012477;28;20022;-44
2023/12/27 05:21:08;;;;;;;1.05;0.90;;;12.50;99.90;;;;;;5013259;28;20099;-44
2023/12/27 05:23:34;;;;;;;1.50;1.02;;;12.50;99.90;;;;;;5012273;28;20148;-43
2023/12/27 05:26:01;;;;;;;1.52;1.00;;;12.50;99.90;;;;;;5012235;28;20054;-43
2023/12/27 05:28:27;;;;;;;1.35;0.90;;;12.50;99.90;;;;;;5012461;28;20032;-45
2023/12/27 05:30:53;;;;;;;3.42;0.90;;;12.50;99.90;;;;;;5012744;28;20037;-44
2023/12/27 05:33:19;;;;;;;2.13;1.10;;;12.50;99.90;;;;;;5012815;28;20017;-44
2023/12/27 05:35:44;;;;;;;2.10;1.10;;;12.50;99.90;;;;;;5012526;28;20373;-44
2023/12/27 05:38:11;;;;;;;1.88;0.93;;;12.50;99.90;;;;;;5012643;28;20057;-44
2023/12/27 05:40:37;;;;;;;2.72;0.98;;;12.50;99.90;;;;;;5013508;28;20077;-44
2023/12/27 05:43:02;;;;;;;1.83;0.90;;;12.50;99.90;;;;;;5012424;28;20558;-44
2023/12/27 05:45:28;;;;;;;2.13;1.17;;;12.50;99.90;;;;;;5012726;28;20026;-44
2023/12/27 05:47:53;;;;;;;1.35;0.90;;;12.50;99.90;;;;;;5013040;28;20050;-44
2023/12/27 05:50:19;;;;;;;2.63;1.15;;;12.50;99.90;;;;;;5012586;28;20030;-44
2023/12/27 05:52:45;;;;;;;2.17;1.15;;;12.50;99.90;;;;;;5012096;28;20488;-44
2023/12/27 05:55:11;;;;;;;2.25;1.45;;;12.40;99.90;;;;;;5011954;28;20017;-44
2023/12/27 05:57:36;;;;;;;2.55;1.10;;;12.40;99.90;;;;;;5013044;28;20026;-45
2023/12/27 06:00:02;;;;;;;1.98;1.05;;;12.40;99.90;;;;;;5013175;28;20034;-45
2023/12/27 06:02:28;;;;;;;2.03;1.23;;;12.40;99.90;;;;;;5012313;28;20030;-44
2023/12/27 06:04:55;;;;;;;1.63;0.85;;;12.40;99.90;;;;;;5012141;28;20037;-45
2023/12/27 06:07:21;;;;;;;1.60;1.10;;;12.40;99.90;;;;;;5012098;28;20053;-44
2023/12/27 06:09:47;;;;;;;1.15;0.88;;;12.40;99.90;;;;;;5012232;28;20072;-44
2023/12/27 06:12:12;;;;;;;1.85;1.20;;;12.40;99.90;;;;;;5011672;28;20488;-43
2023/12/27 06:14:38;;;;;;;1.20;0.88;;;12.40;99.90;;;;;;5012743;28;20129;-43
2023/12/27 06:17:04;;;;;;;1.75;1.00;;;12.40;99.90;;;;;;5011577;28;20029;-45
2023/12/27 06:19:31;;;;;;;1.02;0.90;;;12.40;99.90;;;;;;5011515;28;20042;-43
2023/12/27 06:21:57;;;;;;;1.50;1.00;;;12.40;99.90;;;;;;5011495;28;20025;-44
2023/12/27 06:24:23;;;;;;;2.03;1.02;;;12.40;99.90;;;;;;5011943;28;20423;-43
2023/12/27 06:26:49;;;;;;;1.08;0.88;;;12.40;99.90;;;;;;5011692;28;20030;-45
2023/12/27 06:29:15;;;;;;;2.45;1.20;;;12.40;99.90;;;;;;5011253;28;20072;-44
2023/12/27 06:31:42;;;;;;;1.83;0.90;;;12.30;99.90;;;;;;5011848;28;20058;-44
2023/12/27 06:34:07;;;;;;;1.45;0.95;;;12.30;99.90;;;;;;5012356;28;20014;-44
2023/12/27 06:36:33;;;;;;;1.60;1.08;;;12.40;99.90;;;;;;5011900;28;20026;-44
2023/12/27 06:38:59;;;;;;;1.30;0.90;;;12.30;99.90;;;;;;5011552;28;20403;-44
2023/12/27 06:41:24;;;;;;;1.73;1.10;;;12.30;99.90;;;;;;5011390;28;20032;-43
2023/12/27 06:43:50;;;;;;;2.00;1.10;;;12.30;99.90;;;;;;5011542;28;20038;-44
2023/12/27 06:46:16;;;;;;;1.63;1.13;;;12.30;99.90;;;;;;5011271;28;20168;-45
2023/12/27 06:48:42;;;;;;;1.80;0.90;;;12.30;99.90;;;;;;5011416;28;20448;-44
2023/12/27 06:51:07;;;;;;;2.42;0.85;;;12.30;99.90;;;;;;5012101;28;20088;-43
2023/12/27 06:53:34;;;;;;;1.40;0.80;;;12.30;99.90;;;;;;5011574;28;20022;-44
2023/12/27 06:56:02;;;;;;;2.30;1.02;;;12.30;99.90;;;;;;5010609;28;20030;-44
2023/12/27 06:58:28;;;;;;;1.65;0.80;;;12.30;99.90;;;;;;5011030;28;20088;-44
2023/12/27 07:00:54;;;;;;;1.63;1.00;;;12.30;99.90;;;;;;5011075;28;20033;-44
2023/12/27 07:03:20;;;;;;;2.20;1.10;;;12.30;99.90;;;;;;5011509;28;20026;-45
2023/12/27 07:05:46;;;;;;;1.30;0.90;;;12.30;99.90;;;;;;5011918;28;20041;-45
2023/12/27 07:08:11;;;;;;;2.50;1.23;;;12.30;99.90;;;;;;5014754;28;20026;-44
2023/12/27 07:10:37;;;;;;;1.38;0.80;;;12.30;99.90;;;;;;5014904;28;20511;-44
2023/12/27 07:13:03;;;;;;;3.38;1.00;;;12.30;99.90;;;;;;5015226;28;20393;-44
2023/12/27 07:15:29;;;;;;;1.95;1.00;;;12.30;99.90;;;;;;5014947;28;20476;-43
2023/12/27 07:17:55;;;;;;;2.13;0.82;;;12.30;99.90;;;;;;5014670;28;20072;-44
2023/12/27 07:20:21;;;;;;;2.05;1.42;;;12.30;99.90;;;;;;5014759;28;20030;-44
2023/12/27 07:22:47;;;;;;;2.33;1.60;;;12.30;99.90;;;;;;5014472;28;20507;-44
2023/12/27 07:25:12;;;;;;;2.65;1.42;;;12.30;99.90;;;;;;5014642;28;20025;-43
2023/12/27 07:27:38;;;;;;;1.83;1.15;;;12.30;99.90;;;;;;5014694;28;20564;-45
2023/12/27 07:30:05;;;;;;;1.35;1.00;;;12.30;99.90;;;;;;5015012;28;20033;-44
2023/12/27 07:32:31;;;;;;;1.55;1.05;;;12.30;99.90;;;;;;5015009;28;20030;-43
2023/12/27 07:34:57;;;;;;;1.75;1.25;;;12.20;99.90;;;;;;5014974;28;20438;-44
2023/12/27 07:37:27;;;;;;;1.88;1.10;;;12.30;99.90;;;;;;5014747;28;20045;-44
2023/12/27 07:39:53;;;;;;;2.30;1.10;;;12.30;99.90;;;;;;5014509;28;20026;-44
2023/12/27 07:42:19;;;;;;;1.70;1.10;;;12.30;99.90;;;;;;5014760;28;20064;-44
2023/12/27 07:44:45;;;;;;;1.58;1.10;;;12.30;99.90;;;;;;5014652;28;20034;-45
2023/12/27 07:47:10;;;;;;;2.70;1.33;;;12.30;99.90;;;;;;5014392;28;20049;-45
2023/12/27 07:49:36;;;;;;;1.52;1.13;;;12.30;99.90;;;;;;5014060;28;20030;-45
2023/12/27 07:52:02;;;;;;;2.28;1.23;;;12.30;99.90;;;;;;5014229;28;20028;-44
2023/12/27 07:54:28;;;;;;;2.78;1.30;;;12.30;99.90;;;;;;5014055;28;20384;-46
2023/12/27 07:56:53;;;;;;;2.55;1.15;;;12.40;99.90;;;;;;5013004;28;20022;-45
2023/12/27 07:59:19;;;;;;;2.38;1.30;;;12.40;99.90;;;;;;5013693;28;20028;-45
2023/12/27 08:01:45;;;;;;;1.77;1.27;;;12.40;99.90;;;;;;5013914;28;20568;-45
2023/12/27 08:04:11;;;;;;;1.77;1.20;;;12.50;99.90;;;;;;5013987;28;20076;-44
2023/12/27 08:06:37;;;;;;;3.88;1.30;;;12.50;99.90;;;;;;5014676;28;20076;-45
2023/12/27 08:09:03;;;;;;;1.80;1.35;;;12.50;99.90;;;;;;5012518;28;20399;-45
2023/12/27 08:11:29;;;;;;;3.35;1.40;;;12.60;99.90;;;;;;5013700;28;20022;-45
2023/12/27 08:13:55;;;;;;;2.47;1.30;;;12.60;99.90;;;;;;5013751;28;20409;-45
2023/12/27 08:16:21;;;;;;;2.13;1.30;;;12.60;99.90;;;;;;5013861;28;20475;-45
2023/12/27 08:18:47;;;;;;;2.40;1.38;;;12.70;99.90;;;;;;5013351;28;20536;-45
2023/12/27 08:21:13;;;;;;;6.10;1.90;;;12.70;99.90;;;;;;5013545;28;20077;-45
2023/12/27 08:23:38;;;;;;;3.75;1.70;;;12.80;99.90;;;;;;5013684;28;20041;-43
2023/12/27 08:26:07;;;;;;;5.68;2.30;;;12.80;99.90;;;;;;5013287;28;20503;-44
2023/12/27 08:28:34;;;;;;;3.42;1.60;;;12.80;99.90;;;;;;5013162;28;20026;-44
2023/12/27 08:31:00;;;;;;;3.95;1.80;;;12.80;99.90;;;;;;5012336;28;20080;-45
2023/12/27 08:33:25;;;;;;;3.45;1.70;;;12.90;99.90;;;;;;5013543;28;20026;-45
2023/12/27 08:35:51;;;;;;;5.50;1.92;;;13.00;99.90;;;;;;5013317;28;20014;-45
2023/12/27 08:38:16;;;;;;;6.28;2.20;;;13.00;99.90;;;;;;5013241;28;20567;-43
2023/12/27 08:40:42;;;;;;;4.53;1.80;;;13.10;99.90;;;;;;5013230;28;20026;-44
2023/12/27 08:43:08;;;;;;;4.43;2.00;;;13.20;99.90;;;;;;5013146;28;20389;-42
2023/12/27 08:45:34;;;;;;;3.97;1.90;;;13.20;99.90;;;;;;5013300;28;20018;-45
2023/12/27 08:48:00;;;;;;;9.10;2.25;;;13.30;99.90;;;;;;5013383;28;20018;-42
2023/12/27 08:50:26;;;;;;;3.78;1.80;;;13.30;99.90;;;;;;5013367;28;20125;-45
2023/12/27 08:52:51;;;;;;;5.82;1.80;;;13.40;99.90;;;;;;5013192;28;20030;-44
2023/12/27 08:55:17;;;;;;;3.05;1.65;;;13.40;99.90;;;;;;5013729;28;20101;-44
2023/12/27 08:57:42;;;;;;;5.75;1.60;;;13.50;99.90;;;;;;5013548;28;20451;-43
2023/12/27 09:00:10;;;;;;;6.38;1.90;;;13.60;99.90;;;;;;5013113;28;20088;-45
2023/12/27 09:02:39;;;;;;;3.55;1.80;;;13.60;99.90;;;;;;5014322;28;20026;-45
2023/12/27 09:05:06;;;;;;;3.88;1.70;;;13.70;99.90;;;;;;5012749;28;20030;-44
2023/12/27 09:07:32;;;;;;;3.10;1.40;;;13.80;99.90;;;;;;5012577;28;20056;-45
2023/12/27 09:09:58;;;;;;;3.33;1.63;;;13.90;99.90;;;;;;5012416;28;20105;-45
2023/12/27 09:12:24;;;;;;;2.05;1.48;;;13.90;99.90;;;;;;5012504;28;20064;-45
2023/12/27 09:14:50;;;;;;;3.33;1.60;;;14.00;99.90;;;;;;5012537;28;20033;-45
2023/12/27 09:17:16;;;;;;;3.40;1.65;;;14.10;99.90;;;;;;5012957;28;20026;-45
2023/12/27 09:19:44;;;;;;;3.40;1.42;;;14.20;99.90;;;;;;5012514;28;20101;-44
2023/12/27 09:22:10;;;;;;;3.58;1.40;;;14.30;99.90;;;;;;5013425;28;20435;-45
2023/12/27 09:24:36;;;;;;;2.83;1.52;;;14.40;99.90;;;;;;5012396;28;20088;-45
2023/12/27 09:27:02;;;;;;;3.17;1.80;;;14.50;99.90;;;;;;5012286;28;20113;-45
2023/12/27 09:29:28;;;;;;;3.28;1.60;;;14.50;99.90;;;;;;5011967;28;20030;-45
2023/12/27 09:31:53;;;;;;;2.80;1.50;;;14.60;99.90;;;;;;5012231;28;20550;-44
2023/12/27 09:34:19;;;;;;;2.78;1.50;;;14.70;99.90;;;;;;5012609;28;20101;-45
2023/12/27 09:36:44;;;;;;;3.17;1.65;;;14.80;99.80;;;;;;5012380;28;20018;-45
2023/12/27 09:39:12;;;;;;;2.80;1.40;;;14.90;99.80;;;;;;5011994;28;20049;-45
2023/12/27 09:41:38;;;;;;;2.67;1.60;;;15.00;99.90;;;;;;5012283;28;20050;-45
2023/12/27 09:44:06;;;;;;;3.40;1.45;;;15.10;99.60;;;;;;5012493;28;20037;-45
2023/12/27 09:46:32;;;;;;;4.65;1.60;;;15.20;99.50;;;;;;5011912;28;20038;-45
2023/12/27 09:48:58;;;;;;;3.25;1.80;;;15.30;99.40;;;;;;5011842;28;20026;-45
2023/12/27 09:51:25;;;;;;;3.05;1.40;;;15.40;99.30;;;;;;5013039;28;20495;-45
2023/12/27 09:53:54;;;;;;;3.03;1.30;;;15.50;99.20;;;;;;5010584;28;20034;-45
2023/12/27 09:56:21;;;;;;;3.13;1.80;;;15.60;99.00;;;;;;5011754;28;20022;-44
2023/12/27 09:58:57;;;;;;;3.13;1.50;;;15.70;99.00;;;;;;5011794;28;20069;-44
2023/12/27 10:01:26;;;;;;;2.88;1.38;;;15.80;98.90;;;;;;5011602;28;20026;-45
2023/12/27 10:04:13;;;;;;;2.95;1.35;;;15.90;98.80;;;;;;5011777;28;20072;-45
2023/12/27 10:06:44;;;;;;;2.20;1.20;;;16.00;98.70;;;;;;5011661;28;20060;-45
2023/12/27 10:09:10;;;;;;;1.83;1.27;;;16.10;98.60;;;;;;5011595;28;20026;-45
2023/12/27 10:11:40;;;;;;;2.38;1.20;;;16.20;98.40;;;;;;5011479;28;20068;-45
2023/12/27 10:14:07;;;;;;;2.65;1.50;;;16.20;98.30;;;;;;5012136;28;20113;-44
2023/12/27 10:16:32;;;;;;;3.20;1.65;;;16.30;98.20;;;;;;5011811;28;20076;-45
2023/12/27 10:19:00;;;;;;;3.55;1.40;;;16.40;98.10;;;;;;5011751;28;20033;-45
2023/12/27 10:21:25;;;;;;;2.47;1.13;;;16.40;98.00;;;;;;5011503;28;20045;-45
2023/12/27 10:23:52;;;;;;;1.73;1.10;;;16.50;97.90;;;;;;5011819;28;20069;-44
2023/12/27 10:26:19;;;;;;;2.53;1.25;;;16.60;97.90;;;;;;5011979;28;20030;-45
2023/12/27 10:28:45;;;;;;;2.45;1.40;;;16.60;97.80;;;;;;5011429;28;20075;-45
2023/12/27 10:31:11;;;;;;;3.42;1.63;;;16.70;97.80;;;;;;5011490;28;20485;-45
2023/12/27 10:33:43;;;;;;;2.95;1.40;;;16.70;97.70;;;;;;5011489;28;20551;-45
2023/12/27 10:36:09;;;;;;;1.98;1.40;;;16.80;97.60;;;;;;5011476;28;20021;-45
2023/12/27 10:38:35;;;;;;;2.03;1.27;;;16.90;97.60;;;;;;5011325;28;20454;-45
2023/12/27 10:41:04;;;;;;;3.33;1.30;;;17.00;97.50;;;;;;5013401;28;20101;-45
2023/12/27 10:43:31;;;;;;;1.50;1.08;;;17.00;97.40;;;;;;5015471;28;20032;-45
2023/12/27 10:45:58;;;;;;;1.88;1.20;;;17.10;97.30;;;;;;5015549;28;20072;-45
2023/12/27 10:48:26;;;;;;;2.17;1.25;;;17.20;97.20;;;;;;5015280;28;20472;-45
2023/12/27 10:50:52;;;;;;;2.35;1.48;;;17.30;97.10;;;;;;5015193;28;20400;-45
2023/12/27 10:53:20;;;;;;;2.13;1.10;;;17.30;97.10;;;;;;5015170;28;20026;-45
2023/12/27 10:55:48;;;;;;;2.42;1.10;;;17.40;97.00;;;;;;5015057;28;20077;-45
2023/12/27 10:58:21;;;;;;;2.10;1.20;;;17.50;96.90;;;;;;5015032;28;20030;-45
2023/12/27 11:00:47;;;;;;;1.73;1.10;;;17.50;96.80;;;;;;5014892;28;20037;-45
2023/12/27 11:03:14;;;;;;;2.28;1.13;;;17.60;96.70;;;;;;5015075;28;20038;-45
2023/12/27 11:05:41;;;;;;;2.35;1.10;;;17.60;96.70;;;;;;5015211;28;20026;-44
2023/12/27 11:08:10;;;;;;;2.03;1.20;;;17.70;96.60;;;;;;5014871;28;20419;-45
2023/12/27 11:10:37;;;;;;;2.40;1.27;;;17.80;96.50;;;;;;5014795;28;20061;-45
2023/12/27 11:13:06;;;;;;;1.25;0.90;;;17.80;96.40;;;;;;5014780;28;20030;-44
2023/12/27 11:15:34;;;;;;;2.38;1.13;;;17.80;96.30;;;;;;5017561;28;20013;-44
2023/12/27 11:18:01;;;;;;;2.13;1.10;;;17.90;96.30;;;;;;5030543;28;20036;-45
2023/12/27 11:20:28;;;;;;;4.50;1.10;;;17.90;96.10;;;;;;5021928;28;20435;-45
2023/12/27 11:22:53;;;;;;;3.45;1.08;;;18.00;95.60;;;;;;5031232;28;20034;-44
2023/12/27 11:25:19;;;;;;;2.85;1.05;;;18.00;95.30;;;;;;5024749;28;20026;-45
2023/12/27 11:27:45;;;;;;;2.25;1.05;;;18.00;95.20;;;;;;5026644;28;20041;-45
2023/12/27 11:30:12;;;;;;;2.20;0.90;;;18.10;95.10;;;;;;5022855;28;20022;-45
2023/12/27 11:32:41;;;;;;;3.38;1.10;;;18.10;95.00;;;;;;5034267;28;20035;-45
2023/12/27 11:35:29;;;;;;;2.30;1.05;;;18.20;95.00;;;;;;5034249;28;20152;-45
2023/12/27 11:38:18;;;;;;;1.60;0.80;;;18.30;94.90;;;;;;5034107;28;20022;-45
2023/12/27 11:40:44;;;;;;;3.20;0.90;;;18.30;94.90;;;;;;5034393;28;20551;-45
2023/12/27 11:43:10;;;;;;;2.17;1.02;;;18.40;94.80;;;;;;5034183;28;20041;-45
2023/12/27 11:45:55;;;;;;;2.80;1.10;;;18.40;94.70;;;;;;5034102;28;20047;-45
2023/12/27 11:48:21;;;;;;;2.55;1.20;;;18.50;94.70;;;;;;5033743;28;20075;-45
2023/12/27 11:50:46;;;;;;;1.70;0.82;;;18.50;94.60;;;;;;5034272;28;20021;-45
2023/12/27 11:53:13;;;;;;;1.58;0.88;;;18.50;94.60;;;;;;5033219;28;20065;-45
2023/12/27 11:55:41;;;;;;;1.83;0.90;;;18.60;94.50;;;;;;5033983;28;20495;-45
2023/12/27 11:58:08;;;;;;;2.15;0.98;;;18.60;94.40;;;;;;5033864;28;20049;-45
2023/12/27 12:00:36;;;;;;;2.20;0.80;;;18.60;94.40;;;;;;5033744;28;20419;-45
2023/12/27 12:03:11;;;;;;;1.83;0.75;;;18.70;94.30;;;;;;5033653;28;20032;-45
2023/12/27 12:06:00;;;;;;;1.80;0.80;;;18.70;94.30;;;;;;5033671;28;20397;-45
2023/12/27 12:08:45;;;;;;;1.85;0.85;;;18.70;94.20;;;;;;5033457;28;20033;-45
2023/12/27 12:11:14;;;;;;;1.35;0.80;;;18.70;94.20;;;;;;5033984;28;20071;-46
2023/12/27 12:13:40;;;;;;;1.50;0.93;;;18.70;94.20;;;;;;5033385;28;20017;-45
2023/12/27 12:16:07;;;;;;;1.23;0.88;;;18.70;94.10;;;;;;5033443;28;20021;-45
2023/12/27 12:18:34;;;;;;;1.00;0.73;;;18.70;94.10;;;;;;5033704;28;20029;-45
2023/12/27 12:21:00;;;;;;;1.13;0.88;;;18.70;94.10;;;;;;5033710;28;20025;-45
2023/12/27 12:23:32;;;;;;;1.40;0.90;;;18.70;94.10;;;;;;5033320;28;20041;-45
2023/12/27 12:26:02;;;;;;;2.30;0.90;;;18.80;94.00;;;;;;5033293;28;20021;-45
2023/12/27 12:28:30;;;;;;;3.13;1.00;;;18.70;94.00;;;;;;5033352;28;20022;-45
2023/12/27 12:30:57;;;;;;;2.08;0.77;;;18.70;94.00;;;;;;5033240;28;20017;-45
2023/12/27 12:33:24;;;;;;;1.20;0.80;;;18.70;93.90;;;;;;5033308;28;20464;-45
2023/12/27 12:35:51;;;;;;;1.27;0.88;;;18.70;93.90;;;;;;5033035;28;20080;-45
2023/12/27 12:38:18;;;;;;;1.60;0.77;;;18.70;93.90;;;;;;5032921;28;20022;-46
2023/12/27 12:40:45;;;;;;;1.25;0.80;;;18.70;93.90;;;;;;5033144;28;20450;-45
2023/12/27 12:43:11;;;;;;;1.67;0.80;;;18.80;93.90;;;;;;5033060;28;20033;-46